sensor_id;sensor_type;location;lat;lon;timestamp;temperature;humidity
18392;DHT22;9322;50.932;5.318;2024-02-14T00:01:53;9.30;1.40
18392;DHT22;9322;50.932;5.318;2024-02-14T00:04:19;9.50;1.40
18392;DHT22;9322;50.932;5.318;2024-02-14T00:06:46;9.30;1.40
18392;DHT22;9322;50.932;5.318;2024-02-14T00:09:11;9.40;1.40
18392;DHT22;9322;50.932;5.318;2024-02-14T00:11:37;9.30;1.40
18392;DHT22;9322;50.932;5.318;2024-02-14T00:14:03;9.40;1.40
18392;DHT22;9322;50.932;5.318;2024-02-14T00:16:29;9.50;1.40
18392;DHT22;9322;50.932;5.318;2024-02-14T00:18:57;9.70;1.40
18392;DHT22;9322;50.932;5.318;2024-02-14T00:21:23;9.60;1.40
18392;DHT22;9322;50.932;5.318;2024-02-14T00:23:52;9.50;1.40
18392;DHT22;9322;50.932;5.318;2024-02-14T00:26:18;9.30;1.40
18392;DHT22;9322;50.932;5.318;2024-02-14T00:28:43;9.40;1.40
18392;DHT22;9322;50.932;5.318;2024-02-14T00:31:09;9.50;1.40
18392;DHT22;9322;50.932;5.318;2024-02-14T00:33:35;9.50;1.40
18392;DHT22;9322;50.932;5.318;2024-02-14T00:36:00;9.50;1.40
18392;DHT22;9322;50.932;5.318;2024-02-14T00:38:26;9.50;1.40
18392;DHT22;9322;50.932;5.318;2024-02-14T00:40:52;9.50;1.40
18392;DHT22;9322;50.932;5.318;2024-02-14T00:43:17;9.60;1.40
18392;DHT22;9322;50.932;5.318;2024-02-14T00:45:43;9.60;1.40
18392;DHT22;9322;50.932;5.318;2024-02-14T00:48:09;9.50;1.40
18392;DHT22;9322;50.932;5.318;2024-02-14T00:50:34;9.60;1.40
18392;DHT22;9322;50.932;5.318;2024-02-14T00:53:00;9.60;1.40
18392;DHT22;9322;50.932;5.318;2024-02-14T00:55:26;9.50;1.40
18392;DHT22;9322;50.932;5.318;2024-02-14T00:57:51;9.50;1.40
18392;DHT22;9322;50.932;5.318;2024-02-14T01:00:18;9.60;1.40
18392;DHT22;9322;50.932;5.318;2024-02-14T01:02:44;9.70;1.40
18392;DHT22;9322;50.932;5.318;2024-02-14T01:05:10;9.60;1.40
18392;DHT22;9322;50.932;5.318;2024-02-14T01:07:36;9.60;1.40
18392;DHT22;9322;50.932;5.318;2024-02-14T01:10:02;9.60;1.40
18392;DHT22;9322;50.932;5.318;2024-02-14T01:12:28;9.70;1.40
18392;DHT22;9322;50.932;5.318;2024-02-14T01:14:57;9.50;1.40
18392;DHT22;9322;50.932;5.318;2024-02-14T01:17:23;9.40;1.40
18392;DHT22;9322;50.932;5.318;2024-02-14T01:19:50;9.50;1.40
18392;DHT22;9322;50.932;5.318;2024-02-14T01:22:16;9.50;1.40
18392;DHT22;9322;50.932;5.318;2024-02-14T01:24:45;9.40;1.40
18392;DHT22;9322;50.932;5.318;2024-02-14T01:27:10;9.80;1.40
18392;DHT22;9322;50.932;5.318;2024-02-14T01:29:36;9.60;1.40
18392;DHT22;9322;50.932;5.318;2024-02-14T01:32:02;9.60;1.40
18392;DHT22;9322;50.932;5.318;2024-02-14T01:34:29;9.60;1.40
18392;DHT22;9322;50.932;5.318;2024-02-14T01:36:55;9.70;1.40
18392;DHT22;9322;50.932;5.318;2024-02-14T01:39:21;9.70;1.40
18392;DHT22;9322;50.932;5.318;2024-02-14T01:41:48;9.80;1.40
18392;DHT22;9322;50.932;5.318;2024-02-14T01:44:15;9.80;1.40
18392;DHT22;9322;50.932;5.318;2024-02-14T01:46:42;9.60;1.40
18392;DHT22;9322;50.932;5.318;2024-02-14T01:49:09;9.60;1.40
18392;DHT22;9322;50.932;5.318;2024-02-14T01:51:35;9.70;1.40
18392;DHT22;9322;50.932;5.318;2024-02-14T01:54:03;9.80;1.40
18392;DHT22;9322;50.932;5.318;2024-02-14T01:56:29;9.70;1.40
18392;DHT22;9322;50.932;5.318;2024-02-14T01:58:56;9.70;1.40
18392;DHT22;9322;50.932;5.318;2024-02-14T02:01:22;9.90;1.40
18392;DHT22;9322;50.932;5.318;2024-02-14T02:03:49;9.80;1.40
18392;DHT22;9322;50.932;5.318;2024-02-14T02:06:15;9.70;1.40
18392;DHT22;9322;50.932;5.318;2024-02-14T02:08:45;9.80;1.40
18392;DHT22;9322;50.932;5.318;2024-02-14T02:11:10;9.70;1.40
18392;DHT22;9322;50.932;5.318;2024-02-14T02:13:36;9.80;1.40
18392;DHT22;9322;50.932;5.318;2024-02-14T02:16:05;9.80;1.40
18392;DHT22;9322;50.932;5.318;2024-02-14T02:18:32;9.80;1.40
18392;DHT22;9322;50.932;5.318;2024-02-14T02:20:57;9.80;1.40
18392;DHT22;9322;50.932;5.318;2024-02-14T02:23:23;9.70;1.40
18392;DHT22;9322;50.932;5.318;2024-02-14T02:25:49;9.60;1.40
18392;DHT22;9322;50.932;5.318;2024-02-14T02:28:16;9.60;1.40
18392;DHT22;9322;50.932;5.318;2024-02-14T02:30:42;9.60;1.40
18392;DHT22;9322;50.932;5.318;2024-02-14T02:33:08;9.60;1.40
18392;DHT22;9322;50.932;5.318;2024-02-14T02:35:34;9.60;1.40
18392;DHT22;9322;50.932;5.318;2024-02-14T02:38:00;9.50;1.40
18392;DHT22;9322;50.932;5.318;2024-02-14T02:40:26;9.70;1.40
18392;DHT22;9322;50.932;5.318;2024-02-14T02:42:55;9.60;1.40
18392;DHT22;9322;50.932;5.318;2024-02-14T02:45:20;9.60;1.40
18392;DHT22;9322;50.932;5.318;2024-02-14T02:47:46;9.60;1.40
18392;DHT22;9322;50.932;5.318;2024-02-14T02:50:13;9.60;1.40
18392;DHT22;9322;50.932;5.318;2024-02-14T02:52:39;9.70;1.40
18392;DHT22;9322;50.932;5.318;2024-02-14T02:55:06;9.70;1.40
18392;DHT22;9322;50.932;5.318;2024-02-14T02:57:32;9.70;1.40
18392;DHT22;9322;50.932;5.318;2024-02-14T02:59:59;9.50;1.40
18392;DHT22;9322;50.932;5.318;2024-02-14T03:02:25;9.60;1.40
18392;DHT22;9322;50.932;5.318;2024-02-14T03:04:51;9.70;1.40
18392;DHT22;9322;50.932;5.318;2024-02-14T03:07:19;9.70;1.40
18392;DHT22;9322;50.932;5.318;2024-02-14T03:09:44;9.60;1.40
18392;DHT22;9322;50.932;5.318;2024-02-14T03:12:10;9.50;1.40
18392;DHT22;9322;50.932;5.318;2024-02-14T03:14:36;9.40;1.40
18392;DHT22;9322;50.932;5.318;2024-02-14T03:17:02;9.40;1.40
18392;DHT22;9322;50.932;5.318;2024-02-14T03:19:28;9.30;1.40
18392;DHT22;9322;50.932;5.318;2024-02-14T03:21:56;9.50;1.40
18392;DHT22;9322;50.932;5.318;2024-02-14T03:24:22;9.40;1.40
18392;DHT22;9322;50.932;5.318;2024-02-14T03:26:51;9.50;1.40
18392;DHT22;9322;50.932;5.318;2024-02-14T03:29:19;9.60;1.40
18392;DHT22;9322;50.932;5.318;2024-02-14T03:31:45;9.70;1.40
18392;DHT22;9322;50.932;5.318;2024-02-14T03:34:11;9.80;1.40
18392;DHT22;9322;50.932;5.318;2024-02-14T03:36:37;9.70;1.40
18392;DHT22;9322;50.932;5.318;2024-02-14T03:39:03;9.80;1.40
18392;DHT22;9322;50.932;5.318;2024-02-14T03:41:31;9.70;1.40
18392;DHT22;9322;50.932;5.318;2024-02-14T03:43:57;9.80;1.40
18392;DHT22;9322;50.932;5.318;2024-02-14T03:46:27;9.80;1.40
18392;DHT22;9322;50.932;5.318;2024-02-14T03:48:54;9.90;1.40
18392;DHT22;9322;50.932;5.318;2024-02-14T03:51:19;9.90;1.40
18392;DHT22;9322;50.932;5.318;2024-02-14T03:53:46;9.90;1.40
18392;DHT22;9322;50.932;5.318;2024-02-14T03:56:12;10.00;1.40
18392;DHT22;9322;50.932;5.318;2024-02-14T03:58:40;10.00;1.40
18392;DHT22;9322;50.932;5.318;2024-02-14T04:01:05;9.90;1.40
18392;DHT22;9322;50.932;5.318;2024-02-14T04:03:31;10.00;1.40
18392;DHT22;9322;50.932;5.318;2024-02-14T04:05:57;10.00;1.40
18392;DHT22;9322;50.932;5.318;2024-02-14T04:08:23;10.20;1.40
18392;DHT22;9322;50.932;5.318;2024-02-14T04:10:49;9.80;1.40
18392;DHT22;9322;50.932;5.318;2024-02-14T04:13:20;9.80;1.40
18392;DHT22;9322;50.932;5.318;2024-02-14T04:15:46;9.80;1.40
18392;DHT22;9322;50.932;5.318;2024-02-14T04:18:15;9.80;1.40
18392;DHT22;9322;50.932;5.318;2024-02-14T04:20:43;9.70;1.40
18392;DHT22;9322;50.932;5.318;2024-02-14T04:23:09;9.80;1.40
18392;DHT22;9322;50.932;5.318;2024-02-14T04:25:35;10.10;1.40
18392;DHT22;9322;50.932;5.318;2024-02-14T04:28:02;9.80;1.40
18392;DHT22;9322;50.932;5.318;2024-02-14T04:30:28;9.80;1.40
18392;DHT22;9322;50.932;5.318;2024-02-14T04:32:54;9.80;1.40
18392;DHT22;9322;50.932;5.318;2024-02-14T04:35:20;9.80;1.40
18392;DHT22;9322;50.932;5.318;2024-02-14T04:37:46;10.10;1.40
18392;DHT22;9322;50.932;5.318;2024-02-14T04:40:13;9.90;1.40
18392;DHT22;9322;50.932;5.318;2024-02-14T04:42:40;10.00;1.40
18392;DHT22;9322;50.932;5.318;2024-02-14T04:45:06;10.00;1.40
18392;DHT22;9322;50.932;5.318;2024-02-14T04:47:32;10.00;1.40
18392;DHT22;9322;50.932;5.318;2024-02-14T04:49:58;10.00;1.40
18392;DHT22;9322;50.932;5.318;2024-02-14T04:52:25;10.00;1.40
18392;DHT22;9322;50.932;5.318;2024-02-14T04:54:51;9.80;1.40
18392;DHT22;9322;50.932;5.318;2024-02-14T04:57:16;9.70;1.40
18392;DHT22;9322;50.932;5.318;2024-02-14T04:59:44;9.70;1.40
18392;DHT22;9322;50.932;5.318;2024-02-14T05:02:10;9.80;1.40
18392;DHT22;9322;50.932;5.318;2024-02-14T05:04:36;9.80;1.40
18392;DHT22;9322;50.932;5.318;2024-02-14T05:07:03;10.20;1.40
18392;DHT22;9322;50.932;5.318;2024-02-14T05:09:29;9.90;1.40
18392;DHT22;9322;50.932;5.318;2024-02-14T05:11:55;9.90;1.40
18392;DHT22;9322;50.932;5.318;2024-02-14T05:14:21;10.00;1.40
18392;DHT22;9322;50.932;5.318;2024-02-14T05:16:46;10.00;1.40
18392;DHT22;9322;50.932;5.318;2024-02-14T05:19:12;10.00;1.40
18392;DHT22;9322;50.932;5.318;2024-02-14T05:21:38;10.00;1.40
18392;DHT22;9322;50.932;5.318;2024-02-14T05:24:04;10.00;1.40
18392;DHT22;9322;50.932;5.318;2024-02-14T05:26:30;9.90;1.40
18392;DHT22;9322;50.932;5.318;2024-02-14T05:28:56;9.90;1.40
18392;DHT22;9322;50.932;5.318;2024-02-14T05:31:22;9.90;1.40
18392;DHT22;9322;50.932;5.318;2024-02-14T05:33:47;10.10;1.40
18392;DHT22;9322;50.932;5.318;2024-02-14T05:36:13;10.10;1.40
18392;DHT22;9322;50.932;5.318;2024-02-14T05:38:39;10.00;1.40
18392;DHT22;9322;50.932;5.318;2024-02-14T05:41:05;10.00;1.40
18392;DHT22;9322;50.932;5.318;2024-02-14T05:43:33;10.00;1.40
18392;DHT22;9322;50.932;5.318;2024-02-14T05:45:59;10.10;1.40
18392;DHT22;9322;50.932;5.318;2024-02-14T05:48:25;10.00;1.40
18392;DHT22;9322;50.932;5.318;2024-02-14T05:50:51;10.20;1.40
18392;DHT22;9322;50.932;5.318;2024-02-14T05:53:17;10.20;1.40
18392;DHT22;9322;50.932;5.318;2024-02-14T05:55:44;10.20;1.40
18392;DHT22;9322;50.932;5.318;2024-02-14T05:58:10;10.10;1.40
18392;DHT22;9322;50.932;5.318;2024-02-14T06:00:36;10.10;1.40
18392;DHT22;9322;50.932;5.318;2024-02-14T06:03:01;10.00;1.40
18392;DHT22;9322;50.932;5.318;2024-02-14T06:05:27;10.00;1.40
18392;DHT22;9322;50.932;5.318;2024-02-14T06:07:53;9.90;1.40
18392;DHT22;9322;50.932;5.318;2024-02-14T06:10:19;10.10;1.40
18392;DHT22;9322;50.932;5.318;2024-02-14T06:12:44;10.10;1.40
18392;DHT22;9322;50.932;5.318;2024-02-14T06:15:11;10.10;1.40
18392;DHT22;9322;50.932;5.318;2024-02-14T06:17:37;10.00;1.40
18392;DHT22;9322;50.932;5.318;2024-02-14T06:20:03;10.00;1.40
18392;DHT22;9322;50.932;5.318;2024-02-14T06:22:33;10.20;1.40
18392;DHT22;9322;50.932;5.318;2024-02-14T06:24:59;10.30;1.40
18392;DHT22;9322;50.932;5.318;2024-02-14T06:27:25;10.20;1.40
18392;DHT22;9322;50.932;5.318;2024-02-14T06:29:51;10.20;1.40
18392;DHT22;9322;50.932;5.318;2024-02-14T06:32:18;10.30;1.40
18392;DHT22;9322;50.932;5.318;2024-02-14T06:34:44;10.30;1.40
18392;DHT22;9322;50.932;5.318;2024-02-14T06:37:10;10.30;1.40
18392;DHT22;9322;50.932;5.318;2024-02-14T06:39:35;10.30;1.40
18392;DHT22;9322;50.932;5.318;2024-02-14T06:42:01;10.30;1.40
18392;DHT22;9322;50.932;5.318;2024-02-14T06:44:27;10.30;1.40
18392;DHT22;9322;50.932;5.318;2024-02-14T06:46:52;10.40;1.40
18392;DHT22;9322;50.932;5.318;2024-02-14T06:49:18;10.40;1.40
18392;DHT22;9322;50.932;5.318;2024-02-14T06:51:44;10.50;1.40
18392;DHT22;9322;50.932;5.318;2024-02-14T06:54:10;10.50;1.40
18392;DHT22;9322;50.932;5.318;2024-02-14T06:56:38;10.50;1.40
18392;DHT22;9322;50.932;5.318;2024-02-14T06:59:04;10.50;1.40
18392;DHT22;9322;50.932;5.318;2024-02-14T07:01:30;10.60;1.40
18392;DHT22;9322;50.932;5.318;2024-02-14T07:03:57;10.50;1.40
18392;DHT22;9322;50.932;5.318;2024-02-14T07:06:23;10.60;1.40
18392;DHT22;9322;50.932;5.318;2024-02-14T07:08:49;10.50;1.40
18392;DHT22;9322;50.932;5.318;2024-02-14T07:11:15;10.60;1.40
18392;DHT22;9322;50.932;5.318;2024-02-14T07:13:41;10.60;1.40
18392;DHT22;9322;50.932;5.318;2024-02-14T07:16:07;10.70;1.40
18392;DHT22;9322;50.932;5.318;2024-02-14T07:18:34;10.80;1.40
18392;DHT22;9322;50.932;5.318;2024-02-14T07:21:00;10.60;1.40
18392;DHT22;9322;50.932;5.318;2024-02-14T07:23:27;10.70;1.40
18392;DHT22;9322;50.932;5.318;2024-02-14T07:25:53;10.80;1.40
18392;DHT22;9322;50.932;5.318;2024-02-14T07:28:18;10.60;1.40
18392;DHT22;9322;50.932;5.318;2024-02-14T07:30:44;10.60;1.40
18392;DHT22;9322;50.932;5.318;2024-02-14T07:33:10;10.80;1.40
18392;DHT22;9322;50.932;5.318;2024-02-14T07:35:37;10.80;1.40
18392;DHT22;9322;50.932;5.318;2024-02-14T07:38:02;10.90;1.40
18392;DHT22;9322;50.932;5.318;2024-02-14T07:40:28;10.90;1.40
18392;DHT22;9322;50.932;5.318;2024-02-14T07:42:57;10.90;1.40
18392;DHT22;9322;50.932;5.318;2024-02-14T07:45:22;11.00;1.40
18392;DHT22;9322;50.932;5.318;2024-02-14T07:47:51;11.00;1.40
18392;DHT22;9322;50.932;5.318;2024-02-14T07:50:17;11.00;1.40
18392;DHT22;9322;50.932;5.318;2024-02-14T07:52:43;11.10;1.40
18392;DHT22;9322;50.932;5.318;2024-02-14T07:55:10;11.20;1.40
18392;DHT22;9322;50.932;5.318;2024-02-14T07:57:39;11.20;1.40
18392;DHT22;9322;50.932;5.318;2024-02-14T08:00:06;11.30;1.40
18392;DHT22;9322;50.932;5.318;2024-02-14T08:02:36;11.30;1.40
18392;DHT22;9322;50.932;5.318;2024-02-14T08:05:02;11.10;1.40
18392;DHT22;9322;50.932;5.318;2024-02-14T08:07:30;11.10;1.40
18392;DHT22;9322;50.932;5.318;2024-02-14T08:09:56;11.20;1.40
18392;DHT22;9322;50.932;5.318;2024-02-14T08:12:22;11.30;1.40
18392;DHT22;9322;50.932;5.318;2024-02-14T08:14:48;11.20;1.40
18392;DHT22;9322;50.932;5.318;2024-02-14T08:17:14;11.20;1.40
18392;DHT22;9322;50.932;5.318;2024-02-14T08:19:40;11.30;1.40
18392;DHT22;9322;50.932;5.318;2024-02-14T08:22:06;11.30;1.40
18392;DHT22;9322;50.932;5.318;2024-02-14T08:24:32;11.30;1.40
18392;DHT22;9322;50.932;5.318;2024-02-14T08:26:58;11.40;1.40
18392;DHT22;9322;50.932;5.318;2024-02-14T08:29:24;11.40;1.40
18392;DHT22;9322;50.932;5.318;2024-02-14T08:31:50;11.40;1.40
18392;DHT22;9322;50.932;5.318;2024-02-14T08:34:16;11.40;1.40
18392;DHT22;9322;50.932;5.318;2024-02-14T08:36:42;11.30;1.40
18392;DHT22;9322;50.932;5.318;2024-02-14T08:39:08;11.50;1.40
18392;DHT22;9322;50.932;5.318;2024-02-14T08:41:39;11.50;1.40
18392;DHT22;9322;50.932;5.318;2024-02-14T08:44:06;11.60;1.40
18392;DHT22;9322;50.932;5.318;2024-02-14T08:46:32;11.60;1.40
18392;DHT22;9322;50.932;5.318;2024-02-14T08:49:00;11.60;1.40
18392;DHT22;9322;50.932;5.318;2024-02-14T08:51:28;11.60;1.40
18392;DHT22;9322;50.932;5.318;2024-02-14T08:53:54;11.70;1.40
18392;DHT22;9322;50.932;5.318;2024-02-14T08:56:22;11.70;1.40
18392;DHT22;9322;50.932;5.318;2024-02-14T08:58:49;11.70;1.40
18392;DHT22;9322;50.932;5.318;2024-02-14T09:01:14;11.70;1.40
18392;DHT22;9322;50.932;5.318;2024-02-14T09:03:42;11.50;1.40
18392;DHT22;9322;50.932;5.318;2024-02-14T09:06:13;11.60;1.40
18392;DHT22;9322;50.932;5.318;2024-02-14T09:08:40;11.50;1.40
18392;DHT22;9322;50.932;5.318;2024-02-14T09:11:06;11.70;1.40
18392;DHT22;9322;50.932;5.318;2024-02-14T09:13:31;11.80;1.40
18392;DHT22;9322;50.932;5.318;2024-02-14T09:15:57;11.80;1.40
18392;DHT22;9322;50.932;5.318;2024-02-14T09:18:23;11.70;1.40
18392;DHT22;9322;50.932;5.318;2024-02-14T09:20:50;11.60;1.40
18392;DHT22;9322;50.932;5.318;2024-02-14T09:23:16;11.60;1.40
18392;DHT22;9322;50.932;5.318;2024-02-14T09:25:46;11.50;1.40
18392;DHT22;9322;50.932;5.318;2024-02-14T09:28:19;11.40;1.40
18392;DHT22;9322;50.932;5.318;2024-02-14T09:30:45;11.30;1.40
18392;DHT22;9322;50.932;5.318;2024-02-14T09:33:11;11.30;1.40
18392;DHT22;9322;50.932;5.318;2024-02-14T09:35:37;11.30;1.40
18392;DHT22;9322;50.932;5.318;2024-02-14T09:38:05;11.40;1.40
18392;DHT22;9322;50.932;5.318;2024-02-14T09:40:31;11.50;1.40
18392;DHT22;9322;50.932;5.318;2024-02-14T09:42:56;11.40;1.40
18392;DHT22;9322;50.932;5.318;2024-02-14T09:45:25;11.40;1.40
18392;DHT22;9322;50.932;5.318;2024-02-14T09:47:52;11.40;1.40
18392;DHT22;9322;50.932;5.318;2024-02-14T09:50:19;11.30;1.40
18392;DHT22;9322;50.932;5.318;2024-02-14T09:52:49;11.30;1.40
18392;DHT22;9322;50.932;5.318;2024-02-14T09:55:16;11.40;1.40
18392;DHT22;9322;50.932;5.318;2024-02-14T09:57:43;11.60;1.40
18392;DHT22;9322;50.932;5.318;2024-02-14T10:00:12;11.50;1.40
18392;DHT22;9322;50.932;5.318;2024-02-14T10:02:41;11.50;1.40
18392;DHT22;9322;50.932;5.318;2024-02-14T10:05:07;11.40;1.40
18392;DHT22;9322;50.932;5.318;2024-02-14T10:07:43;11.40;1.40
18392;DHT22;9322;50.932;5.318;2024-02-14T10:10:10;11.30;1.40
18392;DHT22;9322;50.932;5.318;2024-02-14T10:12:36;11.40;1.40
18392;DHT22;9322;50.932;5.318;2024-02-14T10:15:02;11.50;1.40
18392;DHT22;9322;50.932;5.318;2024-02-14T10:17:30;11.60;1.40
18392;DHT22;9322;50.932;5.318;2024-02-14T10:20:01;11.70;1.40
18392;DHT22;9322;50.932;5.318;2024-02-14T10:22:39;11.60;1.40
18392;DHT22;9322;50.932;5.318;2024-02-14T10:25:06;11.70;1.40
18392;DHT22;9322;50.932;5.318;2024-02-14T10:27:36;11.70;1.40
18392;DHT22;9322;50.932;5.318;2024-02-14T10:30:08;11.90;1.40
18392;DHT22;9322;50.932;5.318;2024-02-14T10:32:37;11.90;1.40
18392;DHT22;9322;50.932;5.318;2024-02-14T10:35:07;12.00;1.40
18392;DHT22;9322;50.932;5.318;2024-02-14T10:37:39;12.00;1.40
18392;DHT22;9322;50.932;5.318;2024-02-14T10:40:06;12.00;1.40
18392;DHT22;9322;50.932;5.318;2024-02-14T10:42:32;12.00;1.40
18392;DHT22;9322;50.932;5.318;2024-02-14T10:45:02;11.90;1.40
18392;DHT22;9322;50.932;5.318;2024-02-14T10:47:35;12.00;1.40
18392;DHT22;9322;50.932;5.318;2024-02-14T10:50:04;12.20;1.40
18392;DHT22;9322;50.932;5.318;2024-02-14T10:52:35;12.00;1.40
18392;DHT22;9322;50.932;5.318;2024-02-14T10:55:03;11.90;1.40
18392;DHT22;9322;50.932;5.318;2024-02-14T10:57:29;11.90;1.40
18392;DHT22;9322;50.932;5.318;2024-02-14T10:59:57;11.80;1.40
18392;DHT22;9322;50.932;5.318;2024-02-14T11:02:24;11.90;1.40
18392;DHT22;9322;50.932;5.318;2024-02-14T11:04:50;11.80;1.40
18392;DHT22;9322;50.932;5.318;2024-02-14T11:07:20;11.70;1.40
18392;DHT22;9322;50.932;5.318;2024-02-14T11:09:48;11.70;1.40
18392;DHT22;9322;50.932;5.318;2024-02-14T11:12:25;11.50;1.40
18392;DHT22;9322;50.932;5.318;2024-02-14T11:14:51;11.60;1.40
18392;DHT22;9322;50.932;5.318;2024-02-14T11:17:19;11.60;1.40
18392;DHT22;9322;50.932;5.318;2024-02-14T11:19:50;11.40;1.40
18392;DHT22;9322;50.932;5.318;2024-02-14T11:22:21;11.60;1.40
18392;DHT22;9322;50.932;5.318;2024-02-14T11:24:48;11.60;1.40
18392;DHT22;9322;50.932;5.318;2024-02-14T11:27:14;11.60;1.40
18392;DHT22;9322;50.932;5.318;2024-02-14T11:29:41;11.70;1.40
18392;DHT22;9322;50.932;5.318;2024-02-14T11:32:17;11.80;1.40
18392;DHT22;9322;50.932;5.318;2024-02-14T11:34:51;11.90;1.40
18392;DHT22;9322;50.932;5.318;2024-02-14T11:37:19;12.00;1.40
18392;DHT22;9322;50.932;5.318;2024-02-14T11:39:46;11.90;1.40
18392;DHT22;9322;50.932;5.318;2024-02-14T11:42:12;11.70;1.40
18392;DHT22;9322;50.932;5.318;2024-02-14T11:44:40;11.60;1.40
18392;DHT22;9322;50.932;5.318;2024-02-14T11:47:09;11.70;1.40
18392;DHT22;9322;50.932;5.318;2024-02-14T11:49:36;11.80;1.40
18392;DHT22;9322;50.932;5.318;2024-02-14T11:52:02;11.90;1.40
18392;DHT22;9322;50.932;5.318;2024-02-14T11:54:29;11.90;1.40
18392;DHT22;9322;50.932;5.318;2024-02-14T11:56:55;11.90;1.40
18392;DHT22;9322;50.932;5.318;2024-02-14T11:59:21;12.00;1.40
18392;DHT22;9322;50.932;5.318;2024-02-14T12:01:48;12.10;1.40
18392;DHT22;9322;50.932;5.318;2024-02-14T12:04:17;11.90;1.40
18392;DHT22;9322;50.932;5.318;2024-02-14T12:06:43;12.00;1.40
18392;DHT22;9322;50.932;5.318;2024-02-14T12:09:09;11.90;1.40
18392;DHT22;9322;50.932;5.318;2024-02-14T12:11:36;12.00;1.40
18392;DHT22;9322;50.932;5.318;2024-02-14T12:14:08;12.10;1.40
18392;DHT22;9322;50.932;5.318;2024-02-14T12:16:37;11.90;1.40
18392;DHT22;9322;50.932;5.318;2024-02-14T12:19:06;11.90;1.40
18392;DHT22;9322;50.932;5.318;2024-02-14T12:21:38;12.00;1.40
18392;DHT22;9322;50.932;5.318;2024-02-14T12:24:10;12.10;1.40
18392;DHT22;9322;50.932;5.318;2024-02-14T12:26:37;12.00;1.40
18392;DHT22;9322;50.932;5.318;2024-02-14T12:29:04;11.90;1.40
18392;DHT22;9322;50.932;5.318;2024-02-14T12:31:30;11.70;1.40
18392;DHT22;9322;50.932;5.318;2024-02-14T12:34:00;11.80;1.40
18392;DHT22;9322;50.932;5.318;2024-02-14T12:36:30;12.10;1.40
18392;DHT22;9322;50.932;5.318;2024-02-14T12:38:56;12.00;1.40
18392;DHT22;9322;50.932;5.318;2024-02-14T12:41:22;11.90;1.40
18392;DHT22;9322;50.932;5.318;2024-02-14T12:44:00;12.00;1.40
18392;DHT22;9322;50.932;5.318;2024-02-14T12:46:26;12.00;1.40
18392;DHT22;9322;50.932;5.318;2024-02-14T12:48:52;12.00;1.40
18392;DHT22;9322;50.932;5.318;2024-02-14T12:51:18;11.90;1.40
18392;DHT22;9322;50.932;5.318;2024-02-14T12:53:43;11.80;1.40
18392;DHT22;9322;50.932;5.318;2024-02-14T12:56:09;11.70;1.40
18392;DHT22;9322;50.932;5.318;2024-02-14T12:58:35;11.90;1.40
18392;DHT22;9322;50.932;5.318;2024-02-14T13:01:02;11.90;1.40
18392;DHT22;9322;50.932;5.318;2024-02-14T13:03:31;12.00;1.40
18392;DHT22;9322;50.932;5.318;2024-02-14T13:05:57;12.00;1.40
18392;DHT22;9322;50.932;5.318;2024-02-14T13:08:22;12.00;1.40
18392;DHT22;9322;50.932;5.318;2024-02-14T13:10:49;12.10;1.40
18392;DHT22;9322;50.932;5.318;2024-02-14T13:13:15;12.10;1.40
18392;DHT22;9322;50.932;5.318;2024-02-14T13:15:40;12.30;1.40
18392;DHT22;9322;50.932;5.318;2024-02-14T13:18:08;12.40;1.40
18392;DHT22;9322;50.932;5.318;2024-02-14T13:20:34;12.20;1.40
18392;DHT22;9322;50.932;5.318;2024-02-14T13:22:59;12.20;1.40
18392;DHT22;9322;50.932;5.318;2024-02-14T13:25:25;12.20;1.40
18392;DHT22;9322;50.932;5.318;2024-02-14T13:27:51;12.20;1.40
18392;DHT22;9322;50.932;5.318;2024-02-14T13:30:17;12.30;1.40
18392;DHT22;9322;50.932;5.318;2024-02-14T13:32:44;12.20;1.40
18392;DHT22;9322;50.932;5.318;2024-02-14T13:35:09;12.10;1.40
18392;DHT22;9322;50.932;5.318;2024-02-14T13:37:36;12.10;1.40
18392;DHT22;9322;50.932;5.318;2024-02-14T13:40:02;12.20;1.40
18392;DHT22;9322;50.932;5.318;2024-02-14T13:42:30;12.10;1.40
18392;DHT22;9322;50.932;5.318;2024-02-14T13:44:56;12.10;1.40
18392;DHT22;9322;50.932;5.318;2024-02-14T13:47:21;12.10;1.40
18392;DHT22;9322;50.932;5.318;2024-02-14T13:49:48;12.10;1.40
18392;DHT22;9322;50.932;5.318;2024-02-14T13:52:14;12.10;1.40
18392;DHT22;9322;50.932;5.318;2024-02-14T13:54:41;12.00;1.40
18392;DHT22;9322;50.932;5.318;2024-02-14T13:57:07;12.10;1.40
18392;DHT22;9322;50.932;5.318;2024-02-14T13:59:33;12.10;1.40
18392;DHT22;9322;50.932;5.318;2024-02-14T14:01:58;12.10;1.40
18392;DHT22;9322;50.932;5.318;2024-02-14T14:04:24;12.10;1.40
18392;DHT22;9322;50.932;5.318;2024-02-14T14:06:51;12.10;1.40
18392;DHT22;9322;50.932;5.318;2024-02-14T14:09:17;12.10;1.40
18392;DHT22;9322;50.932;5.318;2024-02-14T14:11:42;12.20;1.40
18392;DHT22;9322;50.932;5.318;2024-02-14T14:14:08;12.20;1.40
18392;DHT22;9322;50.932;5.318;2024-02-14T14:16:36;12.20;1.40
18392;DHT22;9322;50.932;5.318;2024-02-14T14:19:02;12.30;1.40
18392;DHT22;9322;50.932;5.318;2024-02-14T14:21:29;12.20;1.40
18392;DHT22;9322;50.932;5.318;2024-02-14T14:23:54;12.30;1.40
18392;DHT22;9322;50.932;5.318;2024-02-14T14:26:20;12.30;1.40
18392;DHT22;9322;50.932;5.318;2024-02-14T14:28:46;12.30;1.40
18392;DHT22;9322;50.932;5.318;2024-02-14T14:31:12;12.20;1.40
18392;DHT22;9322;50.932;5.318;2024-02-14T14:33:38;12.30;1.40
18392;DHT22;9322;50.932;5.318;2024-02-14T14:36:04;12.10;1.40
18392;DHT22;9322;50.932;5.318;2024-02-14T14:38:30;12.10;1.40
18392;DHT22;9322;50.932;5.318;2024-02-14T14:40:56;12.20;1.40
18392;DHT22;9322;50.932;5.318;2024-02-14T14:43:22;12.30;1.40
18392;DHT22;9322;50.932;5.318;2024-02-14T14:45:48;12.30;1.40
18392;DHT22;9322;50.932;5.318;2024-02-14T14:48:15;12.30;1.40
18392;DHT22;9322;50.932;5.318;2024-02-14T14:50:40;12.30;1.40
18392;DHT22;9322;50.932;5.318;2024-02-14T14:53:07;12.30;1.40
18392;DHT22;9322;50.932;5.318;2024-02-14T14:55:54;12.30;1.40
18392;DHT22;9322;50.932;5.318;2024-02-14T14:58:25;12.40;1.40
18392;DHT22;9322;50.932;5.318;2024-02-14T15:00:55;12.40;1.40
18392;DHT22;9322;50.932;5.318;2024-02-14T15:03:22;12.30;1.40
18392;DHT22;9322;50.932;5.318;2024-02-14T15:05:48;12.40;1.40
18392;DHT22;9322;50.932;5.318;2024-02-14T15:08:14;12.40;1.40
18392;DHT22;9322;50.932;5.318;2024-02-14T15:10:40;12.40;1.40
18392;DHT22;9322;50.932;5.318;2024-02-14T15:13:08;12.40;1.40
18392;DHT22;9322;50.932;5.318;2024-02-14T15:15:35;12.20;1.40
18392;DHT22;9322;50.932;5.318;2024-02-14T15:18:01;12.40;1.40
18392;DHT22;9322;50.932;5.318;2024-02-14T15:20:26;12.40;1.40
18392;DHT22;9322;50.932;5.318;2024-02-14T15:22:52;12.40;1.40
18392;DHT22;9322;50.932;5.318;2024-02-14T15:25:17;12.40;1.40
18392;DHT22;9322;50.932;5.318;2024-02-14T15:27:45;12.50;1.40
18392;DHT22;9322;50.932;5.318;2024-02-14T15:30:23;12.50;1.40
18392;DHT22;9322;50.932;5.318;2024-02-14T15:33:08;12.60;1.40
18392;DHT22;9322;50.932;5.318;2024-02-14T15:35:56;12.60;1.40
18392;DHT22;9322;50.932;5.318;2024-02-14T15:38:23;12.60;1.40
18392;DHT22;9322;50.932;5.318;2024-02-14T15:40:51;12.70;1.40
18392;DHT22;9322;50.932;5.318;2024-02-14T15:43:19;12.60;1.40
18392;DHT22;9322;50.932;5.318;2024-02-14T15:45:46;12.60;1.40
18392;DHT22;9322;50.932;5.318;2024-02-14T15:48:11;12.60;1.40
18392;DHT22;9322;50.932;5.318;2024-02-14T15:50:38;12.70;1.40
18392;DHT22;9322;50.932;5.318;2024-02-14T15:53:04;12.70;1.40
18392;DHT22;9322;50.932;5.318;2024-02-14T15:55:31;12.60;1.40
18392;DHT22;9322;50.932;5.318;2024-02-14T15:57:57;12.70;1.40
18392;DHT22;9322;50.932;5.318;2024-02-14T16:00:23;12.70;1.40
18392;DHT22;9322;50.932;5.318;2024-02-14T16:02:52;12.70;1.40
18392;DHT22;9322;50.932;5.318;2024-02-14T16:05:19;12.70;1.40